Coral Topaz — 3ELB7 — position and weather

sailwx.info

Track history (hours):
 
Tides and Currents Weather Stations Pressure Air Temp Water Temp Dewpoint Dewpoint Depression Visibility Wind Speed Wind Dir Waves Ship Positions

Coral Topaz

Last reported at 2017-Aug-14 22:05 UTC. Time now 2017-Aug-19 20:35 UTC.
Position S 27°01' E 153°51'.

Length 225 m; draft 12.6 m.

Type: Ship. MMSI: 372904000.

Date/timePositionNaut miles runAvg speedWind from/ knotsBaromVisibWave heightAir tempDewpointWater temp
2017-Aug-14 22:05S 27°01' E 153°51'1 8.1
2017-Aug-14 22:00S 27°02' E 153°51'4 8.3
2017-Aug-14 21:30S 27°06' E 153°52'4 8.2
2017-Aug-14 21:00S 27°10' E 153°52'4 8.1
2017-Aug-14 20:30S 27°14' E 153°52'4 8.2
2017-Aug-14 20:00S 27°18' E 153°52'4 8.5
2017-Aug-14 19:30S 27°22' E 153°51'4 8.6
2017-Aug-14 19:00S 27°26' E 153°51'4 8.5
2017-Aug-14 18:30S 27°31' E 153°51'4 8.4
2017-Aug-14 18:00S 27°35' E 153°51'4 8.3
2017-Aug-14 17:30S 27°39' E 153°51'4 8.2
2017-Aug-14 17:00S 27°43' E 153°51'5 8.3
2017-Aug-14 16:23S 27°48' E 153°51'3 8.4
2017-Aug-14 16:00S 27°52' E 153°50'4 8.3
2017-Aug-14 15:29S 27°56' E 153°50'4 8.2
2017-Aug-14 14:57S 28°00' E 153°50'4 8.4
2017-Aug-14 14:29S 28°04' E 153°50'4 8.5
2017-Aug-14 14:00S 28°08' E 153°50'26510.0
2017-Aug-13 11:32S 32°26' E 152°40'110.5
2017-Aug-13 11:29S 32°27' E 152°39'1210.3
2017-Aug-13 10:20S 32°36' E 152°31'310.7
2017-Aug-13 10:00S 32°38' E 152°28'510.5
2017-Aug-13 09:30S 32°42' E 152°24'5 9.8
2017-Aug-13 09:00S 32°45' E 152°19'510.3
2017-Aug-13 08:30S 32°49' E 152°15'510.1
2017-Aug-13 08:00S 32°52' E 152°10'510.1
2017-Aug-13 07:30S 32°56' E 152°06'5 9.5
2017-Aug-13 07:00S 32°57' E 152°00'5 9.5
2017-Aug-13 06:30S 32°57' E 151°55'4 8.3
2017-Aug-13 06:00S 32°56' E 151°50'2 4.8
2017-Aug-13 05:30S 32°55' E 151°47'1 0.5
2017-Aug-13 02:42S 32°54' E 151°46'0 0.0
2017-Aug-13 02:30S 32°54' E 151°46'0 0.0
2017-Aug-13 02:00S 32°54' E 151°46'0 0.0
2017-Aug-13 01:24S 32°54' E 151°46'0 0.0
2017-Aug-13 00:48S 32°54' E 151°46'0 0.0
2017-Aug-12 23:36S 32°54' E 151°46'0 0.0
2017-Aug-12 23:12S 32°54' E 151°46'0 0.0
2017-Aug-12 22:48S 32°54' E 151°46'0 0.0
2017-Aug-12 22:30S 32°54' E 151°46'0 0.0
2017-Aug-12 22:00S 32°54' E 151°46'0 0.0
2017-Aug-12 21:12S 32°54' E 151°46'0 0.0
2017-Aug-12 21:00S 32°54' E 151°46'0 0.0
2017-Aug-12 20:30S 32°54' E 151°46'0 0.0
2017-Aug-12 20:00S 32°54' E 151°46'0 0.0
2017-Aug-12 19:06S 32°54' E 151°46'0 0.0
2017-Aug-12 19:00S 32°54' E 151°46'0 0.0
2017-Aug-12 18:24S 32°54' E 151°46'0 0.0
2017-Aug-12 18:00S 32°54' E 151°46'0 0.0
2017-Aug-12 17:30S 32°54' E 151°46'0 0.0
2017-Aug-12 17:00S 32°54' E 151°46'0 0.0
2017-Aug-12 15:30S 32°54' E 151°46'0 0.0
2017-Aug-12 15:00S 32°54' E 151°46'0 0.0
2017-Aug-12 13:36S 32°54' E 151°46'0 0.0
2017-Aug-12 13:30S 32°54' E 151°46'0 0.0
2017-Aug-12 13:00S 32°54' E 151°46'0 0.0
2017-Aug-12 12:30S 32°54' E 151°46'0 0.0
2017-Aug-12 07:30S 32°54' E 151°46'0 0.0
2017-Aug-12 06:57S 32°54' E 151°46'0 0.0
2017-Aug-12 05:42S 32°54' E 151°46'0 0.0
2017-Aug-12 01:24S 32°54' E 151°46'0 0.0
2017-Aug-11 21:12S 32°54' E 151°46'0 0.0
2017-Aug-11 16:50S 32°54' E 151°46'1 1.5
2017-Aug-11 16:31S 32°54' E 151°46'2 3.6
2017-Aug-11 16:00S 32°55' E 151°48'4 7.6
2017-Aug-11 15:30S 32°57' E 151°51'5 9.5
2017-Aug-11 15:00S 33°01' E 151°54'510.1
2017-Aug-11 14:30S 33°05' E 151°58'4 3.9
2017-Aug-11 13:30S 33°08' E 152°02'0 0.6
2017-Aug-11 13:00S 33°08' E 152°01'0 0.5
2017-Aug-11 12:30S 33°08' E 152°01'0 0.3
2017-Aug-11 12:00S 33°08' E 152°01'0 0.2
2017-Aug-11 11:27S 33°08' E 152°01'1 1.2
2017-Aug-11 10:57S 33°07' E 152°01'2 4.7
2017-Aug-11 10:30S 33°05' E 151°59'510.4
2017-Aug-11 10:00S 33°00' E 151°59'4 7.1
2017-Aug-11 09:30S 32°57' E 152°02'5 9.0
2017-Aug-11 09:00S 32°56' E 152°07'612.2
2017-Aug-11 08:30S 32°52' E 152°12'612.3
2017-Aug-11 08:00S 32°48' E 152°17'612.0
2017-Aug-11 07:30S 32°43' E 152°22'612.5
2017-Aug-11 07:00S 32°39' E 152°27'612.4
2017-Aug-11 06:30S 32°34' E 152°32'612.4
2017-Aug-11 06:00S 32°30' E 152°37'612.2
2017-Aug-11 05:30S 32°24' E 152°41'1812.1
2017-Aug-11 04:02S 32°08' E 152°48'311.9
2017-Aug-11 03:48S 32°05' E 152°49'24413.0
2017-Aug-10 09:04S 28°07' E 153°49'314.2
2017-Aug-10 08:52S 28°04' E 153°50'514.1
2017-Aug-10 08:30S 27°59' E 153°50'713.9
2017-Aug-10 08:00S 27°52' E 153°50'714.1
2017-Aug-10 07:30S 27°45' E 153°51'815.0
2017-Aug-10 07:00S 27°37' E 153°51'  
Track history (hours):
 
Tides and Currents Weather Stations Pressure Air Temp Water Temp Dewpoint Dewpoint Depression Visibility Wind Speed Wind Dir Waves Ship Positions

Coral Topaz

Last reported at 2017-Aug-14 22:05 UTC. Time now 2017-Aug-19 20:35 UTC.
Position S 27°01' E 153°51'.

Length 225 m; draft 12.6 m.

Type: Ship. MMSI: 372904000.

Date/timePositionNaut miles runAvg speedWind from/ knotsBaromVisibWave heightAir tempDewpointWater temp
2017-Aug-14 22:05S 27°01' E 153°51'1 8.1
2017-Aug-14 22:00S 27°02' E 153°51'4 8.3
2017-Aug-14 21:30S 27°06' E 153°52'4 8.2
2017-Aug-14 21:00S 27°10' E 153°52'4 8.1
2017-Aug-14 20:30S 27°14' E 153°52'4 8.2
2017-Aug-14 20:00S 27°18' E 153°52'4 8.5
2017-Aug-14 19:30S 27°22' E 153°51'4 8.6
2017-Aug-14 19:00S 27°26' E 153°51'4 8.5
2017-Aug-14 18:30S 27°31' E 153°51'4 8.4
2017-Aug-14 18:00S 27°35' E 153°51'4 8.3
2017-Aug-14 17:30S 27°39' E 153°51'4 8.2
2017-Aug-14 17:00S 27°43' E 153°51'5 8.3
2017-Aug-14 16:23S 27°48' E 153°51'3 8.4
2017-Aug-14 16:00S 27°52' E 153°50'4 8.3
2017-Aug-14 15:29S 27°56' E 153°50'4 8.2
2017-Aug-14 14:57S 28°00' E 153°50'4 8.4
2017-Aug-14 14:29S 28°04' E 153°50'4 8.5
2017-Aug-14 14:00S 28°08' E 153°50'26510.0
2017-Aug-13 11:32S 32°26' E 152°40'110.5
2017-Aug-13 11:29S 32°27' E 152°39'1210.3
2017-Aug-13 10:20S 32°36' E 152°31'310.7
2017-Aug-13 10:00S 32°38' E 152°28'510.5
2017-Aug-13 09:30S 32°42' E 152°24'5 9.8
2017-Aug-13 09:00S 32°45' E 152°19'510.3
2017-Aug-13 08:30S 32°49' E 152°15'510.1
2017-Aug-13 08:00S 32°52' E 152°10'510.1
2017-Aug-13 07:30S 32°56' E 152°06'5 9.5
2017-Aug-13 07:00S 32°57' E 152°00'5 9.5
2017-Aug-13 06:30S 32°57' E 151°55'4 8.3
2017-Aug-13 06:00S 32°56' E 151°50'2 4.8
2017-Aug-13 05:30S 32°55' E 151°47'1 0.5
2017-Aug-13 02:42S 32°54' E 151°46'0 0.0
2017-Aug-13 02:30S 32°54' E 151°46'0 0.0
2017-Aug-13 02:00S 32°54' E 151°46'0 0.0
2017-Aug-13 01:24S 32°54' E 151°46'0 0.0
2017-Aug-13 00:48S 32°54' E 151°46'0 0.0
2017-Aug-12 23:36S 32°54' E 151°46'0 0.0
2017-Aug-12 23:12S 32°54' E 151°46'0 0.0
2017-Aug-12 22:48S 32°54' E 151°46'0 0.0
2017-Aug-12 22:30S 32°54' E 151°46'0 0.0
2017-Aug-12 22:00S 32°54' E 151°46'0 0.0
2017-Aug-12 21:12S 32°54' E 151°46'0 0.0
2017-Aug-12 21:00S 32°54' E 151°46'0 0.0
2017-Aug-12 20:30S 32°54' E 151°46'0 0.0
2017-Aug-12 20:00S 32°54' E 151°46'0 0.0
2017-Aug-12 19:06S 32°54' E 151°46'0 0.0
2017-Aug-12 19:00S 32°54' E 151°46'0 0.0
2017-Aug-12 18:24S 32°54' E 151°46'0 0.0
2017-Aug-12 18:00S 32°54' E 151°46'0 0.0
2017-Aug-12 17:30S 32°54' E 151°46'0 0.0
2017-Aug-12 17:00S 32°54' E 151°46'0 0.0
2017-Aug-12 15:30S 32°54' E 151°46'0 0.0
2017-Aug-12 15:00S 32°54' E 151°46'0 0.0
2017-Aug-12 13:36S 32°54' E 151°46'0 0.0
2017-Aug-12 13:30S 32°54' E 151°46'0 0.0
2017-Aug-12 13:00S 32°54' E 151°46'0 0.0
2017-Aug-12 12:30S 32°54' E 151°46'0 0.0
2017-Aug-12 07:30S 32°54' E 151°46'0 0.0
2017-Aug-12 06:57S 32°54' E 151°46'0 0.0
2017-Aug-12 05:42S 32°54' E 151°46'0 0.0
2017-Aug-12 01:24S 32°54' E 151°46'0 0.0
2017-Aug-11 21:12S 32°54' E 151°46'0 0.0
2017-Aug-11 16:50S 32°54' E 151°46'1 1.5
2017-Aug-11 16:31S 32°54' E 151°46'2 3.6
2017-Aug-11 16:00S 32°55' E 151°48'4 7.6
2017-Aug-11 15:30S 32°57' E 151°51'5 9.5
2017-Aug-11 15:00S 33°01' E 151°54'510.1
2017-Aug-11 14:30S 33°05' E 151°58'4 3.9
2017-Aug-11 13:30S 33°08' E 152°02'0 0.6
2017-Aug-11 13:00S 33°08' E 152°01'0 0.5
2017-Aug-11 12:30S 33°08' E 152°01'0 0.3
2017-Aug-11 12:00S 33°08' E 152°01'0 0.2
2017-Aug-11 11:27S 33°08' E 152°01'1 1.2
2017-Aug-11 10:57S 33°07' E 152°01'2 4.7
2017-Aug-11 10:30S 33°05' E 151°59'510.4
2017-Aug-11 10:00S 33°00' E 151°59'4 7.1
2017-Aug-11 09:30S 32°57' E 152°02'5 9.0
2017-Aug-11 09:00S 32°56' E 152°07'612.2
2017-Aug-11 08:30S 32°52' E 152°12'612.3
2017-Aug-11 08:00S 32°48' E 152°17'612.0
2017-Aug-11 07:30S 32°43' E 152°22'612.5
2017-Aug-11 07:00S 32°39' E 152°27'612.4
2017-Aug-11 06:30S 32°34' E 152°32'612.4
2017-Aug-11 06:00S 32°30' E 152°37'612.2
2017-Aug-11 05:30S 32°24' E 152°41'1812.1
2017-Aug-11 04:02S 32°08' E 152°48'311.9
2017-Aug-11 03:48S 32°05' E 152°49'24413.0
2017-Aug-10 09:04S 28°07' E 153°49'314.2
2017-Aug-10 08:52S 28°04' E 153°50'514.1
2017-Aug-10 08:30S 27°59' E 153°50'713.9
2017-Aug-10 08:00S 27°52' E 153°50'714.1
2017-Aug-10 07:30S 27°45' E 153°51'815.0
2017-Aug-10 07:00S 27°37' E 153°51'  

Dump ship's entire track history